Terminal Aerodrome Forecast
Issued by NWS

Home | Current Version | Previous Version | Text Only | Print | Product List | Glossary On
Versions: 1 2 3 4 5 6 7 8 9 10 11 12 13 14 15 16 17 18 19 20 21 22 23 24 25 26 27 28 29 30 31 32 33 34
000
FTUS44 KMOB 170555
TAFBFM
TAF
KBFM 170555Z 1706/1806 04004KT P6SM SKC
     FM171500 29006KT P6SM SCT025
     FM171800 17007KT P6SM VCTS SCT035CB PROB30 1720/1802 5SM TSRA
      BKN040CB
     FM180200 23003KT P6SM SKC=

USA.gov is the U.S. government's official web portal to all federal, state and local government web resources and services.